Time;durP1;ratioP1;P1;durP2;ratioP2;P2;SDS_P1;SDS_P2;PMS_P1;PMS_P2;Temp;Humidity;BMP_temperature;BMP_pressure;BME280_temperature;BME280_humidity;BME280_pressure;Samples;Min_cycle;Max_cycle;Signal;HPM_P1;HPM_P2
2022/07/09 00:01:26;;;;;;;0.97;0.70;;;28.10;99.90;;;;;;4947086;28;20242;-96
2022/07/09 00:03:58;;;;;;;1.50;0.50;;;27.70;99.90;;;;;;4944413;28;20664;-96
2022/07/09 00:06:31;;;;;;;0.50;0.50;;;28.00;99.90;;;;;;4944133;29;20231;-96
2022/07/09 00:09:03;;;;;;;0.60;0.40;;;28.20;99.90;;;;;;4946734;28;20216;-96
2022/07/09 00:11:36;;;;;;;0.77;0.60;;;28.00;99.90;;;;;;4942795;29;20217;-96
2022/07/09 00:14:11;;;;;;;0.60;0.53;;;27.90;99.90;;;;;;4942580;29;20236;-96
2022/07/09 00:22:34;;;;;;;1.67;0.60;;;27.50;99.90;;;;;;4954299;29;20206;-96
2022/07/09 00:28:06;;;;;;;0.60;0.60;;;26.80;99.90;;;;;;4994441;28;20215;-96
2022/07/09 00:31:06;;;;;;;0.63;0.50;;;27.10;99.90;;;;;;4978655;28;20215;-96
2022/07/09 00:36:20;;;;;;;0.40;0.40;;;27.30;99.90;;;;;;5858002;23;20214;-96
2022/07/09 00:38:53;;;;;;;0.93;0.70;;;27.20;99.90;;;;;;4997701;28;20207;-96
2022/07/09 00:41:25;;;;;;;0.83;0.60;;;27.10;99.90;;;;;;4997992;28;20206;-96
2022/07/09 00:43:57;;;;;;;0.63;0.60;;;27.10;99.90;;;;;;4998514;28;20202;-96
2022/07/09 00:49:28;;;;;;;1.13;0.50;;;27.20;99.90;;;;;;4966620;28;20703;-96
2022/07/09 00:52:04;;;;;;;0.60;0.50;;;27.20;99.90;;;;;;4961253;28;20208;-96
2022/07/09 00:54:37;;;;;;;0.80;0.63;;;26.90;99.90;;;;;;4961720;28;20250;-96
2022/07/09 00:57:11;;;;;;;1.10;0.70;;;27.40;99.90;;;;;;4961366;28;20231;-96
2022/07/09 00:59:46;;;;;;;0.60;0.60;;;27.80;99.90;;;;;;4962208;28;20222;-96
2022/07/09 01:02:24;;;;;;;0.50;0.43;;;28.10;99.90;;;;;;4963117;28;20244;-96
2022/07/09 01:04:56;;;;;;;0.60;0.53;;;28.90;99.90;;;;;;4963935;28;20299;-96
2022/07/09 01:10:12;;;;;;;0.50;0.50;;;29.60;99.90;;;;;;4960409;29;20219;-96
2022/07/09 01:12:44;;;;;;;2.43;0.80;;;29.40;99.90;;;;;;4960511;28;20274;-96
2022/07/09 01:15:16;;;;;;;0.60;0.60;;;29.40;99.90;;;;;;4943508;29;20211;-96
2022/07/09 01:17:55;;;;;;;0.60;0.60;;;29.40;99.90;;;;;;4962261;28;20259;-96
2022/07/09 01:20:32;;;;;;;2.90;0.70;;;29.50;99.90;;;;;;5012798;23;20241;-96
2022/07/09 01:23:04;;;;;;;2.63;0.80;;;28.80;99.90;;;;;;4966993;28;20203;-96
2022/07/09 01:25:38;;;;;;;0.83;0.73;;;29.30;99.90;;;;;;4978976;28;20212;-95
2022/07/09 01:28:10;;;;;;;0.83;0.83;;;29.00;99.90;;;;;;4981789;28;20207;-96
2022/07/09 01:30:43;;;;;;;1.43;0.70;;;29.20;99.90;;;;;;4980958;28;20239;-96
2022/07/09 01:33:15;;;;;;;1.00;0.70;;;29.50;99.90;;;;;;4981426;28;20234;-96
2022/07/09 01:35:49;;;;;;;0.97;0.87;;;28.70;99.90;;;;;;4979923;28;20194;-96
2022/07/09 01:38:22;;;;;;;1.00;0.70;;;29.30;99.90;;;;;;4981491;28;20262;-96
2022/07/09 01:40:54;;;;;;;2.77;0.80;;;29.10;99.90;;;;;;4980349;28;20215;-96
2022/07/09 01:43:26;;;;;;;0.97;0.67;;;29.40;99.90;;;;;;4963963;29;20195;-96
2022/07/09 01:46:00;;;;;;;1.20;0.80;;;30.00;99.90;;;;;;4973705;29;20211;-96
2022/07/09 01:48:35;;;;;;;1.65;0.70;;;29.80;99.90;;;;;;4624595;28;9999973;-95
2022/07/09 01:53:58;;;;;;;1.60;1.00;;;29.10;99.90;;;;;;5011850;23;20258;-96
2022/07/09 01:56:32;;;;;;;1.03;0.80;;;28.70;99.90;;;;;;4989813;28;20214;-96
2022/07/09 02:52:14;;;;;;;2.47;1.00;;;23.80;99.90;;;;;;4970048;28;20303;-96
2022/07/09 02:54:50;;;;;;;2.80;1.10;;;23.60;99.90;;;;;;4968207;29;20222;-96
2022/07/09 02:57:40;;;;;;;1.03;0.70;;;23.40;99.90;;;;;;4972632;28;20204;-96
2022/07/09 03:00:14;;;;;;;2.20;0.80;;;23.20;99.90;;;;;;4978698;28;20208;-96
2022/07/09 03:02:49;;;;;;;2.70;1.20;;;23.00;99.90;;;;;;5096078;23;20245;-96
2022/07/09 03:32:39;;;;;;;3.10;0.70;;;21.90;99.90;;;;;;4978728;28;20283;-96
2022/07/09 03:35:20;;;;;;;0.60;0.60;;;21.70;99.90;;;;;;4964295;29;20231;-96
2022/07/09 04:22:41;;;;;;;0.70;0.70;;;19.70;99.90;;;;;;5043898;23;20257;-96
2022/07/09 04:28:31;;;;;;;0.90;0.90;;;19.50;99.90;;;;;;4989801;28;20210;-96
2022/07/09 04:36:59;;;;;;;1.87;1.00;;;19.30;99.90;;;;;;4994626;28;20267;-96
2022/07/09 05:00:54;;;;;;;2.20;0.77;;;18.60;99.90;;;;;;4981475;28;20214;-96
2022/07/09 05:03:41;;;;;;;1.23;0.90;;;18.60;99.90;;;;;;4992849;28;20207;-96
2022/07/09 05:06:31;;;;;;;1.80;1.07;;;18.50;99.90;;;;;;4994196;28;20225;-96
2022/07/09 05:18:22;;;;;;;1.13;0.70;;;18.30;99.90;;;;;;4989528;27;4655581;-96
2022/07/09 05:24:15;;;;;;;0.73;0.60;;;18.30;99.90;;;;;;5130397;28;20214;-96
2022/07/09 05:27:00;;;;;;;0.70;0.70;;;18.10;99.90;;;;;;5122010;28;20220;-96
2022/07/09 05:29:35;;;;;;;0.80;0.70;;;18.00;99.90;;;;;;5118820;28;20537;-96
2022/07/09 05:32:12;;;;;;;0.80;0.60;;;17.90;99.90;;;;;;5120875;28;20284;-96
2022/07/09 05:34:47;;;;;;;1.00;0.83;;;17.80;99.90;;;;;;5116688;28;20217;-96
2022/07/09 05:37:19;;;;;;;1.33;0.70;;;17.70;99.90;;;;;;5096238;28;20238;-96
2022/07/09 05:39:52;;;;;;;1.00;0.70;;;17.70;99.90;;;;;;5101313;28;20226;-96
2022/07/09 05:42:25;;;;;;;0.97;0.73;;;17.60;99.90;;;;;;5102406;28;20203;-96
2022/07/09 05:44:57;;;;;;;1.33;0.80;;;17.70;99.90;;;;;;5113744;28;20233;-96
2022/07/09 05:47:29;;;;;;;1.03;0.77;;;17.60;99.90;;;;;;5113111;28;20230;-96
2022/07/09 05:50:04;;;;;;;0.70;0.70;;;17.60;99.90;;;;;;5113888;28;20207;-96
2022/07/09 05:55:23;;;;;;;0.70;0.50;;;17.40;99.90;;;;;;5105501;28;20214;-96
2022/07/09 05:57:54;;;;;;;0.90;0.50;;;17.40;99.90;;;;;;5095870;28;20295;-96
2022/07/09 06:00:26;;;;;;;2.40;0.90;;;17.30;99.90;;;;;;5094230;28;20207;-96
2022/07/09 06:03:07;;;;;;;1.03;0.60;;;17.40;99.90;;;;;;5099215;28;20211;-96
2022/07/09 06:05:42;;;;;;;1.33;0.67;;;17.30;99.90;;;;;;5106810;28;20204;-96
2022/07/09 06:08:13;;;;;;;0.70;0.70;;;17.30;99.90;;;;;;5111990;28;20240;-96
2022/07/09 06:10:51;;;;;;;1.10;0.60;;;17.30;99.90;;;;;;5105298;28;20240;-96
2022/07/09 06:13:25;;;;;;;0.57;0.57;;;17.20;99.90;;;;;;5100416;28;20215;-96
2022/07/09 06:15:59;;;;;;;1.20;0.70;;;17.20;99.90;;;;;;5099496;28;20211;-96
2022/07/09 06:18:33;;;;;;;0.50;0.50;;;17.20;99.90;;;;;;5097532;28;20231;-96
2022/07/09 06:21:12;;;;;;;1.40;0.70;;;17.10;99.90;;;;;;5103394;28;20204;-96
2022/07/09 06:23:47;;;;;;;0.57;0.57;;;17.10;99.90;;;;;;5095126;28;20272;-96
2022/07/09 06:26:20;;;;;;;1.13;0.80;;;17.10;99.90;;;;;;5096777;28;20206;-96
2022/07/09 06:28:52;;;;;;;0.90;0.60;;;17.10;99.90;;;;;;5086277;28;20277;-96
2022/07/09 06:31:24;;;;;;;2.17;0.50;;;17.10;99.90;;;;;;5082737;28;20204;-96
2022/07/09 06:40:29;;;;;;;1.50;0.90;;;17.10;99.90;;;;;;5082097;28;20545;-96
2022/07/09 06:43:11;;;;;;;1.07;0.93;;;17.10;99.90;;;;;;5086605;28;20207;-96
2022/07/09 06:46:25;;;;;;;2.57;0.70;;;17.10;99.90;;;;;;5094195;28;20203;-96
2022/07/09 07:04:55;;;;;;;0.60;0.60;;;16.70;99.90;;;;;;5075299;28;20224;-96
2022/07/09 07:07:31;;;;;;;2.00;0.70;;;16.60;99.90;;;;;;5071130;28;20216;-96
2022/07/09 07:13:01;;;;;;;0.70;0.70;;;16.60;99.90;;;;;;5046662;28;20201;-96
2022/07/09 07:15:37;;;;;;;0.77;0.67;;;16.60;99.90;;;;;;5048136;28;20216;-96
2022/07/09 07:21:13;;;;;;;1.23;0.80;;;16.50;99.90;;;;;;5048530;28;20241;-96
2022/07/09 07:23:56;;;;;;;1.00;0.70;;;16.50;99.90;;;;;;5049435;28;20228;-96
2022/07/09 07:32:49;;;;;;;2.10;0.60;;;16.40;99.90;;;;;;5049235;28;20224;-95
2022/07/09 07:38:27;;;;;;;1.63;0.70;;;16.30;99.90;;;;;;5044190;28;20677;-96
2022/07/09 07:44:22;;;;;;;1.60;0.60;;;16.20;99.90;;;;;;5070084;28;20233;-96
2022/07/09 07:47:11;;;;;;;0.87;0.50;;;16.10;99.90;;;;;;5068146;28;20200;-96
2022/07/09 07:49:43;;;;;;;0.70;0.60;;;16.10;99.90;;;;;;5068284;28;20204;-96
2022/07/09 07:52:18;;;;;;;0.87;0.80;;;16.10;99.90;;;;;;5068209;28;20639;-96
2022/07/09 07:54:53;;;;;;;1.20;0.87;;;16.00;99.90;;;;;;5058969;28;20215;-96
2022/07/09 07:57:25;;;;;;;2.07;0.70;;;15.90;99.90;;;;;;5059191;28;20293;-96
2022/07/09 08:12:30;;;;;;;1.07;0.90;;;15.80;99.90;;;;;;5062802;28;20245;-96
2022/07/09 08:15:02;;;;;;;1.60;0.80;;;15.80;99.90;;;;;;5062252;28;20220;-96
2022/07/09 08:17:35;;;;;;;2.40;0.83;;;15.70;99.90;;;;;;5059945;28;20232;-96
2022/07/09 08:20:07;;;;;;;1.03;0.57;;;15.60;99.90;;;;;;5058130;28;20216;-96
2022/07/09 08:22:42;;;;;;;2.10;0.77;;;15.60;99.90;;;;;;5060283;28;20200;-96
2022/07/09 08:25:14;;;;;;;0.80;0.70;;;15.60;99.90;;;;;;5064494;28;20203;-96
2022/07/09 08:31:20;;;;;;;0.70;0.70;;;15.50;99.90;;;;;;5095598;22;20537;-96
2022/07/09 08:33:52;;;;;;;1.20;0.73;;;15.50;99.90;;;;;;5183185;22;20239;-96
2022/07/09 08:36:27;;;;;;;1.23;0.90;;;15.40;99.90;;;;;;5060554;28;20235;-96
2022/07/09 08:38:58;;;;;;;1.07;0.90;;;15.50;99.90;;;;;;5060384;28;20235;-96
2022/07/09 08:41:32;;;;;;;1.27;0.80;;;15.50;99.90;;;;;;5067550;28;20208;-96
2022/07/09 08:44:06;;;;;;;1.10;1.00;;;15.40;99.90;;;;;;5075155;28;20208;-96
2022/07/09 08:46:41;;;;;;;1.23;0.80;;;15.50;99.90;;;;;;5075138;28;20215;-96
2022/07/09 08:49:14;;;;;;;1.80;0.83;;;15.40;99.90;;;;;;5076606;28;20196;-96
2022/07/09 08:51:47;;;;;;;0.87;0.70;;;15.40;99.90;;;;;;5074006;28;20223;-96
2022/07/09 08:54:24;;;;;;;3.13;0.90;;;15.40;99.90;;;;;;5063628;28;20208;-96
2022/07/09 08:56:56;;;;;;;2.67;0.90;;;15.40;99.90;;;;;;5061046;28;20274;-96
2022/07/09 08:59:28;;;;;;;1.93;0.80;;;15.30;99.90;;;;;;5062672;28;20250;-96
2022/07/09 09:02:08;;;;;;;1.10;0.90;;;15.30;99.90;;;;;;5060655;28;20794;-96
2022/07/09 09:04:40;;;;;;;0.73;0.73;;;15.30;99.90;;;;;;5061690;28;20215;-96
2022/07/09 09:07:21;;;;;;;0.90;0.80;;;15.20;99.90;;;;;;5063564;28;20242;-96
2022/07/09 09:09:53;;;;;;;1.03;0.80;;;15.10;99.90;;;;;;5058985;28;20234;-96
2022/07/09 09:12:30;;;;;;;1.00;0.70;;;15.00;99.90;;;;;;5066205;28;20262;-96
2022/07/09 09:15:06;;;;;;;0.97;0.77;;;15.00;99.90;;;;;;5058244;28;20208;-96
2022/07/09 09:17:46;;;;;;;1.07;0.70;;;14.90;99.90;;;;;;5059307;28;20236;-96
2022/07/09 09:20:20;;;;;;;1.70;0.90;;;14.90;99.90;;;;;;5059128;28;20736;-96
2022/07/09 09:22:59;;;;;;;1.00;0.70;;;14.80;99.90;;;;;;5058076;28;20324;-96
2022/07/09 09:25:31;;;;;;;1.23;0.80;;;14.80;99.90;;;;;;5057835;28;20210;-96
2022/07/09 09:28:04;;;;;;;1.57;0.63;;;14.80;99.90;;;;;;5057169;28;20216;-96
2022/07/09 09:30:46;;;;;;;1.40;0.97;;;14.80;99.90;;;;;;5056918;28;20215;-96
2022/07/09 09:33:22;;;;;;;2.30;1.10;;;14.80;99.90;;;;;;5056932;28;20212;-96
2022/07/09 09:35:53;;;;;;;2.63;0.80;;;14.70;99.90;;;;;;5058069;28;20226;-96
2022/07/09 09:38:29;;;;;;;2.77;0.80;;;14.60;99.90;;;;;;5059720;28;20292;-96
2022/07/09 09:41:02;;;;;;;1.37;0.80;;;14.60;99.90;;;;;;5058203;28;20302;-96
2022/07/09 09:43:38;;;;;;;0.93;0.80;;;14.60;99.90;;;;;;5058372;28;20277;-96
2022/07/09 09:46:12;;;;;;;1.20;0.90;;;14.60;99.90;;;;;;5067876;28;20285;-96
2022/07/09 09:48:51;;;;;;;1.57;0.77;;;14.50;99.90;;;;;;5077587;28;20213;-96
2022/07/09 09:51:26;;;;;;;2.87;1.10;;;14.50;99.90;;;;;;5076620;28;20199;-96
2022/07/09 09:53:58;;;;;;;0.83;0.80;;;14.50;99.90;;;;;;5076398;28;20216;-96
2022/07/09 09:59:29;;;;;;;1.10;0.83;;;14.40;99.90;;;;;;5077169;28;20238;-96
2022/07/09 10:02:09;;;;;;;1.73;0.90;;;14.40;99.90;;;;;;5077287;28;20245;-96
2022/07/09 10:04:44;;;;;;;1.90;0.80;;;14.50;99.90;;;;;;5083820;28;20227;-96
2022/07/09 10:07:17;;;;;;;1.10;0.63;;;14.50;99.90;;;;;;5086302;28;20211;-96
2022/07/09 10:09:59;;;;;;;1.40;0.90;;;14.50;99.90;;;;;;5080537;28;20242;-96
2022/07/09 10:12:32;;;;;;;2.37;0.90;;;14.50;99.90;;;;;;5066164;28;20629;-96
2022/07/09 10:15:05;;;;;;;3.13;1.10;;;14.50;99.90;;;;;;5065000;28;20218;-96
2022/07/09 10:17:44;;;;;;;0.80;0.80;;;14.50;99.90;;;;;;5065576;28;20269;-96
2022/07/09 10:20:19;;;;;;;2.07;0.87;;;14.50;99.90;;;;;;5061673;28;20211;-96
2022/07/09 10:22:53;;;;;;;3.20;0.90;;;14.50;99.90;;;;;;5061594;28;20257;-96
2022/07/09 10:25:35;;;;;;;2.50;0.90;;;14.50;99.90;;;;;;5066139;28;20188;-96
2022/07/09 10:31:20;;;;;;;1.43;0.90;;;14.50;99.90;;;;;;5063221;28;20216;-96
2022/07/09 10:33:58;;;;;;;2.20;0.90;;;14.50;99.90;;;;;;5060349;28;20212;-95
2022/07/09 10:36:41;;;;;;;1.70;0.97;;;14.40;99.90;;;;;;5060356;28;20211;-96
2022/07/09 10:39:15;;;;;;;1.80;0.90;;;14.40;99.90;;;;;;5059995;28;20288;-96
2022/07/09 10:41:47;;;;;;;1.20;0.97;;;14.40;99.90;;;;;;5052745;28;20219;-96
2022/07/09 10:44:29;;;;;;;0.73;0.70;;;14.40;99.90;;;;;;5050533;28;20204;-96
2022/07/09 10:47:00;;;;;;;1.27;0.90;;;14.30;99.90;;;;;;5059283;28;20265;-96
2022/07/09 10:49:38;;;;;;;1.17;0.70;;;14.20;99.90;;;;;;5059559;28;20204;-96
2022/07/09 10:52:15;;;;;;;1.63;0.87;;;14.20;99.90;;;;;;5067083;28;20235;-96
2022/07/09 10:54:50;;;;;;;1.00;0.70;;;14.20;99.90;;;;;;5063129;28;20252;-96
2022/07/09 10:57:26;;;;;;;0.90;0.80;;;14.10;99.90;;;;;;5059668;28;20617;-96
2022/07/09 10:59:58;;;;;;;1.17;0.90;;;14.10;99.90;;;;;;5059493;28;20269;-96
2022/07/09 11:02:29;;;;;;;1.50;0.80;;;14.10;99.90;;;;;;5060069;28;20329;-96
2022/07/09 11:05:01;;;;;;;1.87;0.90;;;14.10;99.90;;;;;;5061936;28;20223;-96
2022/07/09 11:07:36;;;;;;;1.23;0.90;;;14.10;99.90;;;;;;5069081;28;20205;-95
2022/07/09 11:10:09;;;;;;;0.97;0.87;;;14.00;99.90;;;;;;5097364;28;20191;-96
2022/07/09 11:12:50;;;;;;;2.10;1.10;;;14.00;99.90;;;;;;5079918;28;20216;-96
2022/07/09 11:15:23;;;;;;;1.70;1.00;;;14.10;99.90;;;;;;5078453;28;20196;-96
2022/07/09 11:17:58;;;;;;;1.27;0.80;;;14.00;99.90;;;;;;5078195;28;20203;-96
2022/07/09 11:20:32;;;;;;;1.37;1.00;;;14.00;99.90;;;;;;5077380;28;20216;-96
2022/07/09 11:23:05;;;;;;;1.80;0.80;;;14.00;99.90;;;;;;5078540;28;20275;-95
2022/07/09 11:25:36;;;;;;;1.43;0.90;;;14.00;99.90;;;;;;5078398;28;20200;-96
2022/07/09 11:28:08;;;;;;;1.53;0.80;;;13.90;99.90;;;;;;5078427;28;20200;-96
2022/07/09 11:30:43;;;;;;;1.10;1.00;;;13.90;99.90;;;;;;5077924;28;20306;-95
2022/07/09 11:33:15;;;;;;;1.57;0.93;;;14.00;99.90;;;;;;5078348;28;20284;-96
2022/07/09 11:35:48;;;;;;;0.80;0.70;;;13.90;99.90;;;;;;5073242;28;20292;-96
2022/07/09 11:38:24;;;;;;;0.97;0.83;;;13.80;99.90;;;;;;5069228;28;20212;-96
2022/07/09 11:41:02;;;;;;;1.00;0.83;;;13.80;99.90;;;;;;5075713;28;20237;-96
2022/07/09 11:43:38;;;;;;;1.17;0.87;;;13.80;99.90;;;;;;5080341;28;20223;-96
2022/07/09 11:46:12;;;;;;;0.93;0.83;;;13.80;99.90;;;;;;5079733;28;20203;-95
2022/07/09 11:48:52;;;;;;;1.50;0.87;;;13.70;99.90;;;;;;5079807;28;20203;-96
2022/07/09 11:51:36;;;;;;;1.37;0.83;;;13.70;99.90;;;;;;5078860;28;20212;-96
2022/07/09 11:54:09;;;;;;;1.23;0.77;;;13.70;99.90;;;;;;5079215;28;20644;-96
2022/07/09 11:56:47;;;;;;;1.67;0.80;;;13.70;99.90;;;;;;5079094;28;20261;-96
2022/07/09 11:59:34;;;;;;;1.80;0.80;;;13.80;99.90;;;;;;5079193;28;20235;-95
2022/07/09 12:02:06;;;;;;;1.17;0.80;;;13.80;99.90;;;;;;5080193;28;20207;-95
2022/07/09 12:04:38;;;;;;;0.73;0.73;;;13.80;99.90;;;;;;5079277;28;20211;-96
2022/07/09 12:07:13;;;;;;;1.50;0.73;;;13.80;99.90;;;;;;5079324;28;20208;-96
2022/07/09 12:09:48;;;;;;;1.43;0.67;;;13.80;99.90;;;;;;5079316;28;20268;-96
2022/07/09 12:12:30;;;;;;;1.07;0.93;;;13.90;99.90;;;;;;5065621;28;20251;-96
2022/07/09 12:15:03;;;;;;;0.83;0.60;;;13.80;99.90;;;;;;5061798;28;20210;-96
2022/07/09 12:17:38;;;;;;;0.80;0.80;;;13.80;99.90;;;;;;5062231;28;20234;-96
2022/07/09 12:20:12;;;;;;;2.20;0.90;;;13.70;99.90;;;;;;5061490;28;20231;-96
2022/07/09 12:22:46;;;;;;;3.07;0.90;;;13.70;99.90;;;;;;5061625;28;20212;-96
2022/07/09 12:25:21;;;;;;;1.17;0.97;;;13.70;99.90;;;;;;5062264;28;20203;-96
2022/07/09 12:28:00;;;;;;;1.33;0.90;;;13.70;99.90;;;;;;5065203;28;20211;-95
2022/07/09 12:30:32;;;;;;;1.07;0.80;;;13.70;99.90;;;;;;5061262;28;20215;-96
2022/07/09 12:33:04;;;;;;;1.43;0.87;;;13.70;99.90;;;;;;5061599;28;20212;-96
2022/07/09 12:35:36;;;;;;;1.23;0.80;;;13.70;99.90;;;;;;5061519;28;20223;-96
2022/07/09 12:38:19;;;;;;;1.77;1.10;;;13.70;99.90;;;;;;5062118;28;20234;-96
2022/07/09 12:40:54;;;;;;;1.43;0.77;;;13.70;99.90;;;;;;5060141;28;20239;-96
2022/07/09 12:43:26;;;;;;;1.23;0.80;;;13.70;99.90;;;;;;5061225;28;20207;-96
2022/07/09 12:45:59;;;;;;;3.30;1.23;;;13.70;99.90;;;;;;5061395;28;20212;-96
2022/07/09 12:48:31;;;;;;;2.03;0.90;;;13.60;99.90;;;;;;5061205;28;20365;-96
2022/07/09 12:51:03;;;;;;;3.10;0.90;;;13.70;99.90;;;;;;5061256;28;20295;-96
2022/07/09 12:53:35;;;;;;;1.80;0.60;;;13.70;99.90;;;;;;5061690;28;20208;-96
2022/07/09 12:59:15;;;;;;;4.03;0.90;;;13.80;99.90;;;;;;5062061;28;20211;-96
2022/07/09 13:01:52;;;;;;;1.47;0.87;;;13.90;99.90;;;;;;5060961;28;20200;-96
2022/07/09 13:04:26;;;;;;;0.90;0.90;;;13.80;99.90;;;;;;5058498;28;20250;-95
2022/07/09 13:06:58;;;;;;;1.00;0.70;;;13.90;99.90;;;;;;5058005;28;20208;-96
2022/07/09 13:09:30;;;;;;;1.37;0.80;;;13.90;99.90;;;;;;5057541;28;20215;-95
2022/07/09 13:12:06;;;;;;;1.00;0.90;;;13.90;99.90;;;;;;5060274;28;20262;-96
2022/07/09 13:14:37;;;;;;;2.20;0.90;;;13.90;99.90;;;;;;5059517;28;20313;-95
2022/07/09 13:17:09;;;;;;;3.80;1.00;;;13.80;99.90;;;;;;5059482;28;20216;-96
2022/07/09 13:20:00;;;;;;;1.23;0.90;;;13.90;99.90;;;;;;5059911;28;20232;-96
2022/07/09 13:22:33;;;;;;;2.50;1.07;;;13.90;99.90;;;;;;5062857;28;20204;-96
2022/07/09 13:25:04;;;;;;;1.40;1.00;;;13.80;99.90;;;;;;5058079;28;20282;-96
2022/07/09 13:27:39;;;;;;;2.43;1.00;;;13.70;99.90;;;;;;5057584;28;20610;-96
2022/07/09 13:30:21;;;;;;;2.10;0.70;;;13.70;99.90;;;;;;5059550;28;20274;-96
2022/07/09 13:32:53;;;;;;;1.20;0.73;;;13.70;99.90;;;;;;5057360;28;20258;-96
2022/07/09 13:35:24;;;;;;;0.80;0.80;;;13.80;99.90;;;;;;5057614;28;20215;-96
2022/07/09 13:37:56;;;;;;;1.57;0.93;;;13.80;99.90;;;;;;5058328;28;20290;-96
2022/07/09 13:40:29;;;;;;;2.30;1.10;;;13.80;99.90;;;;;;5078961;28;20556;-96
2022/07/09 13:43:04;;;;;;;1.13;0.90;;;13.80;99.90;;;;;;5040807;28;20212;-96
2022/07/09 13:49:03;;;;;;;2.10;0.90;;;13.90;99.90;;;;;;5044059;28;20212;-95
2022/07/09 13:51:35;;;;;;;1.73;1.03;;;13.90;99.90;;;;;;5042366;28;20287;-96
2022/07/09 13:54:08;;;;;;;2.20;1.03;;;14.00;99.90;;;;;;5044197;28;20212;-96
2022/07/09 13:56:40;;;;;;;1.10;1.00;;;14.00;99.90;;;;;;5043845;28;20208;-96
2022/07/09 13:59:16;;;;;;;1.20;1.00;;;14.10;99.90;;;;;;5047735;28;20213;-96
2022/07/09 14:01:47;;;;;;;2.20;1.10;;;14.10;99.90;;;;;;5058179;28;20224;-96
2022/07/09 14:04:20;;;;;;;2.27;0.97;;;14.20;99.90;;;;;;5059848;28;20221;-96
2022/07/09 14:07:04;;;;;;;1.90;0.80;;;14.30;99.90;;;;;;5065825;28;20207;-96
2022/07/09 14:09:37;;;;;;;1.43;0.90;;;14.30;99.90;;;;;;5070234;28;20242;-96
2022/07/09 14:12:09;;;;;;;1.00;0.90;;;14.40;99.90;;;;;;5059327;28;20213;-96
2022/07/09 14:14:44;;;;;;;2.13;0.97;;;14.50;99.90;;;;;;5055113;28;20232;-96
2022/07/09 14:17:17;;;;;;;1.67;1.00;;;14.70;99.90;;;;;;5049679;28;20209;-96
2022/07/09 14:19:49;;;;;;;1.20;0.90;;;14.70;99.90;;;;;;5040896;28;20220;-96
2022/07/09 14:22:20;;;;;;;1.00;0.90;;;14.80;99.90;;;;;;5040105;28;20237;-96
2022/07/09 14:24:53;;;;;;;2.67;0.90;;;15.00;99.90;;;;;;5040721;28;20209;-96
2022/07/09 14:27:26;;;;;;;1.07;0.90;;;15.10;99.90;;;;;;5041382;28;20538;-96
2022/07/09 14:30:00;;;;;;;1.70;1.00;;;15.20;99.90;;;;;;5040577;28;20208;-96
2022/07/09 14:32:32;;;;;;;1.13;0.87;;;15.30;99.90;;;;;;5043402;28;20208;-96
2022/07/09 14:35:06;;;;;;;0.70;0.70;;;15.40;99.90;;;;;;5042849;28;20217;-96
2022/07/09 14:37:37;;;;;;;1.77;0.90;;;15.50;99.90;;;;;;5042861;28;20227;-96
2022/07/09 14:40:11;;;;;;;1.57;0.80;;;15.60;99.90;;;;;;5040099;28;20244;-96
2022/07/09 14:42:43;;;;;;;1.40;0.80;;;15.80;99.90;;;;;;5041610;28;20221;-96
2022/07/09 14:45:20;;;;;;;1.07;0.70;;;15.90;99.90;;;;;;5041548;28;20212;-96
2022/07/09 14:47:53;;;;;;;1.10;0.97;;;16.20;99.90;;;;;;5041099;28;20208;-96
2022/07/09 14:50:25;;;;;;;1.50;0.80;;;16.50;99.90;;;;;;5042056;28;20209;-96
2022/07/09 14:52:58;;;;;;;0.60;0.60;;;16.80;99.90;;;;;;5041490;28;20321;-96
2022/07/09 14:55:30;;;;;;;1.50;0.50;;;17.00;99.90;;;;;;5043849;28;20225;-96
2022/07/09 14:58:02;;;;;;;1.97;0.67;;;17.20;99.90;;;;;;5042338;28;20251;-96
2022/07/09 15:00:38;;;;;;;1.13;0.63;;;17.30;99.90;;;;;;5041159;28;20657;-96
2022/07/09 15:03:14;;;;;;;1.43;0.70;;;17.40;99.90;;;;;;5050617;28;20650;-96
2022/07/09 15:08:32;;;;;;;1.63;0.80;;;17.70;99.90;;;;;;5044538;28;20258;-96
2022/07/09 15:11:17;;;;;;;1.70;0.70;;;17.80;99.90;;;;;;5057587;28;20208;-96
2022/07/09 15:13:51;;;;;;;1.27;0.70;;;18.00;99.90;;;;;;5068223;28;20277;-96
2022/07/09 15:16:27;;;;;;;1.50;0.90;;;18.00;99.90;;;;;;5069682;28;20258;-96
2022/07/09 15:19:01;;;;;;;1.90;0.90;;;18.20;99.90;;;;;;5061894;28;20273;-96
2022/07/09 15:21:34;;;;;;;0.60;0.57;;;18.30;99.90;;;;;;5043681;28;20282;-96
2022/07/09 15:24:06;;;;;;;0.70;0.60;;;18.20;99.90;;;;;;5060885;28;20208;-96
2022/07/09 15:26:39;;;;;;;0.73;0.60;;;18.30;99.90;;;;;;5060801;28;20208;-96
2022/07/09 15:29:12;;;;;;;1.63;0.90;;;18.50;99.90;;;;;;5060839;28;20345;-96
2022/07/09 15:31:50;;;;;;;2.20;1.20;;;18.70;99.90;;;;;;5049781;28;20208;-96
2022/07/09 15:34:22;;;;;;;1.80;0.67;;;18.90;99.90;;;;;;5040133;28;20219;-96
2022/07/09 15:36:54;;;;;;;0.50;0.50;;;19.10;99.90;;;;;;5040515;28;20607;-96
2022/07/09 15:39:26;;;;;;;1.83;0.73;;;19.10;99.90;;;;;;5041699;28;20270;-96
2022/07/09 15:42:00;;;;;;;1.70;0.73;;;18.70;99.90;;;;;;5055242;28;20267;-96
2022/07/09 15:58:04;;;;;;;1.27;1.00;;;19.30;99.90;;;;;;5068414;28;20204;-96
2022/07/09 16:03:47;;;;;;;1.70;0.80;;;19.40;99.90;;;;;;5076561;28;20230;-96
2022/07/09 16:09:21;;;;;;;0.90;0.70;;;19.50;99.90;;;;;;5077802;28;20234;-96
2022/07/09 16:17:38;;;;;;;0.80;0.80;;;19.60;99.90;;;;;;5168741;23;20256;-94
2022/07/09 16:23:13;;;;;;;0.73;0.70;;;19.60;99.90;;;;;;5068341;28;20306;-96
2022/07/09 16:25:44;;;;;;;0.93;0.70;;;19.50;99.90;;;;;;5063003;28;20212;-96
2022/07/09 16:28:20;;;;;;;1.43;0.93;;;19.40;99.90;;;;;;5063695;28;20723;-96
2022/07/09 16:31:07;;;;;;;1.17;0.97;;;19.10;99.90;;;;;;5061952;28;20205;-96
2022/07/09 16:33:44;;;;;;;1.20;0.77;;;18.90;99.90;;;;;;5063410;28;20205;-96
2022/07/09 16:36:18;;;;;;;1.80;0.80;;;19.00;99.90;;;;;;5068392;28;20204;-96
2022/07/09 16:38:53;;;;;;;1.00;0.70;;;18.90;99.90;;;;;;5068344;28;20192;-96
2022/07/09 16:41:30;;;;;;;0.90;0.70;;;19.00;99.90;;;;;;5074516;28;20259;-96
2022/07/09 16:44:14;;;;;;;1.50;0.80;;;19.10;99.90;;;;;;5076335;28;20191;-96
2022/07/09 16:46:47;;;;;;;1.13;0.80;;;19.00;99.90;;;;;;5076767;28;20192;-96
2022/07/09 16:52:32;;;;;;;1.70;1.00;;;19.20;99.90;;;;;;5076916;28;20207;-96
2022/07/09 16:55:12;;;;;;;2.73;0.90;;;19.50;99.90;;;;;;5076143;28;20212;-96
2022/07/09 17:06:43;;;;;;;1.87;0.90;;;20.10;99.90;;;;;;5068931;28;20214;-96
2022/07/09 17:09:28;;;;;;;0.70;0.70;;;20.30;99.90;;;;;;5084143;28;20212;-96
2022/07/09 17:12:10;;;;;;;1.33;0.87;;;20.30;99.90;;;;;;5318922;22;20196;-96
2022/07/09 17:33:00;;;;;;;1.00;0.80;;;20.70;99.90;;;;;;5442863;22;20239;-96
2022/07/09 17:35:36;;;;;;;1.90;0.93;;;20.80;99.90;;;;;;5093845;28;20200;-96
2022/07/09 17:38:12;;;;;;;1.57;0.77;;;20.80;99.90;;;;;;5092177;28;20237;-96
2022/07/09 17:46:26;;;;;;;1.60;0.80;;;21.30;99.90;;;;;;5741485;22;20338;-96
2022/07/09 17:51:59;;;;;;;2.10;0.70;;;21.30;99.90;;;;;;5072666;28;20204;-96
2022/07/09 18:00:52;;;;;;;1.27;0.70;;;20.00;99.90;;;;;;5023448;28;20214;-96
2022/07/09 18:26:26;;;;;;;1.70;0.80;;;21.00;99.90;;;;;;5074871;28;20637;-96
2022/07/09 18:29:03;;;;;;;1.03;0.70;;;20.90;99.90;;;;;;5070025;28;20273;-96
2022/07/09 18:31:37;;;;;;;1.23;0.80;;;21.10;99.90;;;;;;5064212;28;20207;-96
2022/07/09 18:34:11;;;;;;;1.10;0.80;;;21.20;99.90;;;;;;5069422;28;20211;-96
2022/07/09 18:36:57;;;;;;;1.20;0.80;;;21.00;99.90;;;;;;5066024;28;20269;-96
2022/07/09 18:39:35;;;;;;;1.17;0.90;;;21.10;99.90;;;;;;5069366;28;20283;-96
2022/07/09 18:42:07;;;;;;;0.83;0.77;;;21.30;99.90;;;;;;5063864;28;20266;-96
2022/07/09 18:44:42;;;;;;;2.20;0.70;;;21.30;99.90;;;;;;5064652;28;20212;-96
2022/07/09 18:50:04;;;;;;;0.97;0.80;;;20.90;99.90;;;;;;5064755;28;20254;-94
2022/07/09 18:52:41;;;;;;;1.23;0.70;;;21.10;99.90;;;;;;5065259;28;20225;-96
2022/07/09 18:55:29;;;;;;;4.10;0.70;;;21.40;99.90;;;;;;5072081;28;20204;-96
2022/07/09 18:58:14;;;;;;;1.00;0.70;;;21.30;99.90;;;;;;5064242;28;20201;-96
2022/07/09 19:04:02;;;;;;;1.63;0.80;;;21.50;99.90;;;;;;5073484;28;20314;-96
2022/07/09 19:06:52;;;;;;;2.27;0.70;;;21.80;99.90;;;;;;5072135;28;20200;-96
2022/07/09 19:22:26;;;;;;;0.50;0.50;;;23.20;99.90;;;;;;5057150;28;20232;-96
2022/07/09 19:37:28;;;;;;;1.17;1.00;;;21.90;99.90;;;;;;5044197;28;20208;-96
2022/07/09 19:40:02;;;;;;;1.40;1.00;;;22.30;99.90;;;;;;5051711;28;20200;-96
2022/07/09 19:48:08;;;;;;;1.50;1.10;;;22.50;99.90;;;;;;5046670;28;20218;-96
2022/07/09 19:50:54;;;;;;;2.20;1.20;;;22.60;99.90;;;;;;5048529;28;20211;-96
2022/07/09 19:54:03;;;;;;;1.33;1.00;;;22.20;99.90;;;;;;5049526;28;20219;-96
2022/07/09 19:59:27;;;;;;;1.90;0.87;;;22.50;99.90;;;;;;5068938;28;20208;-96
2022/07/09 20:02:02;;;;;;;1.97;1.20;;;22.40;99.90;;;;;;5069617;28;20196;-96
2022/07/09 20:04:55;;;;;;;1.33;1.00;;;22.50;99.90;;;;;;5072726;28;20215;-96
2022/07/09 20:11:13;;;;;;;1.07;0.90;;;22.50;99.90;;;;;;5075840;28;20231;-96